createdAt,value
2022-12-18T00:00:57.400Z,59.30
2022-12-18T00:01:57.461Z,55.60
2022-12-18T00:02:57.495Z,56.60
2022-12-18T00:03:57.571Z,56.90
2022-12-18T00:04:57.279Z,58.40
2022-12-18T00:05:57.247Z,56.50
2022-12-18T00:06:57.225Z,61.60
2022-12-18T00:07:57.192Z,56.80
2022-12-18T00:08:57.166Z,59.00
2022-12-18T00:09:57.130Z,60.20
2022-12-18T00:11:00.464Z,60.60
2022-12-18T00:11:57.066Z,58.80
2022-12-18T00:12:57.034Z,58.70
2022-12-18T00:13:57.008Z,63.60
2022-12-18T00:14:56.973Z,56.40
2022-12-18T00:15:57.050Z,56.20
2022-12-18T00:16:56.916Z,61.70
2022-12-18T00:17:56.886Z,59.70
2022-12-18T00:18:56.852Z,54.00
2022-12-18T00:19:56.828Z,57.60
2022-12-18T00:20:56.792Z,60.70
2022-12-18T00:21:56.769Z,54.90
2022-12-18T00:22:56.730Z,59.80
2022-12-18T00:23:56.704Z,56.10
2022-12-18T00:24:56.671Z,59.90
2022-12-18T00:25:56.646Z,53.50
2022-12-18T00:26:56.608Z,61.40
2022-12-18T00:27:56.583Z,58.20
2022-12-18T00:28:56.554Z,57.50
2022-12-18T00:29:56.528Z,57.90
2022-12-18T00:30:56.492Z,58.70
2022-12-18T00:31:56.517Z,54.90
2022-12-18T00:32:56.426Z,55.50
2022-12-18T00:33:56.398Z,55.70
2022-12-18T00:34:56.364Z,55.60
2022-12-18T00:35:56.343Z,56.60
2022-12-18T00:36:56.305Z,57.80
2022-12-18T00:37:56.279Z,58.70
2022-12-18T00:38:56.242Z,54.80
2022-12-18T00:39:56.219Z,54.50
2022-12-18T00:40:56.189Z,59.70
2022-12-18T00:41:56.175Z,58.70
2022-12-18T00:42:56.126Z,57.80
2022-12-18T00:43:56.097Z,54.70
2022-12-18T00:44:56.060Z,54.50
2022-12-18T00:45:56.151Z,53.70
2022-12-18T00:46:56.002Z,58.40
2022-12-18T00:47:55.992Z,59.30
2022-12-18T00:48:55.942Z,55.30
2022-12-18T00:49:55.911Z,58.50
2022-12-18T00:50:55.880Z,58.10
2022-12-18T00:51:55.856Z,56.40
2022-12-18T00:52:55.817Z,56.90
2022-12-18T00:53:55.794Z,58.80
2022-12-18T00:54:55.758Z,58.00
2022-12-18T00:55:55.735Z,56.40
2022-12-18T00:56:55.697Z,58.70
2022-12-18T00:57:55.668Z,61.60
2022-12-18T00:58:55.634Z,53.60
2022-12-18T00:59:55.609Z,53.30
2022-12-18T01:00:55.639Z,60.10
2022-12-18T01:01:55.660Z,59.10
2022-12-18T01:02:55.514Z,55.40
2022-12-18T01:03:55.511Z,54.90
2022-12-18T01:04:55.453Z,55.40
2022-12-18T01:05:55.420Z,56.70
2022-12-18T01:06:55.390Z,55.70
2022-12-18T01:07:55.367Z,62.60
2022-12-18T01:08:55.329Z,61.50
2022-12-18T01:09:55.306Z,60.20
2022-12-18T01:10:55.281Z,58.50
2022-12-18T01:11:55.241Z,57.50
2022-12-18T01:12:55.211Z,56.10
2022-12-18T01:13:55.184Z,55.40
2022-12-18T01:14:55.144Z,57.50
2022-12-18T01:15:55.125Z,58.30
2022-12-18T01:16:55.179Z,56.00
2022-12-18T01:17:55.062Z,52.00
2022-12-18T01:18:55.026Z,56.90
2022-12-18T01:19:55.028Z,59.40
2022-12-18T01:20:54.965Z,55.40
2022-12-18T01:21:54.939Z,56.80
2022-12-18T01:22:54.902Z,57.00
2022-12-18T01:23:54.880Z,57.20
2022-12-18T01:24:54.843Z,59.50
2022-12-18T01:25:54.815Z,56.10
2022-12-18T01:26:54.781Z,56.20
2022-12-18T01:27:54.756Z,57.80
2022-12-18T01:28:54.722Z,53.00
2022-12-18T01:29:54.691Z,57.40
2022-12-18T01:30:54.658Z,53.60
2022-12-18T01:31:54.658Z,53.20
2022-12-18T01:32:54.599Z,58.60
2022-12-18T01:33:54.567Z,55.70
2022-12-18T01:34:54.539Z,57.50
2022-12-18T01:35:54.508Z,58.10
2022-12-18T01:36:54.477Z,53.30
2022-12-18T01:37:54.451Z,52.00
2022-12-18T01:38:54.411Z,58.00
2022-12-18T01:39:54.384Z,59.20
2022-12-18T01:40:54.349Z,56.20
2022-12-18T01:41:54.325Z,58.60
2022-12-18T01:42:54.290Z,57.30
2022-12-18T01:43:54.262Z,52.50
2022-12-18T01:44:54.231Z,57.20
2022-12-18T01:45:54.234Z,62.10
2022-12-18T01:46:54.168Z,53.20
2022-12-18T01:47:54.141Z,58.20
2022-12-18T01:48:54.113Z,59.50
2022-12-18T01:49:54.078Z,59.30
2022-12-18T01:50:54.040Z,50.40
2022-12-18T01:51:54.017Z,56.90
2022-12-18T01:52:53.980Z,51.40
2022-12-18T01:53:53.953Z,58.00
2022-12-18T01:54:53.917Z,55.30
2022-12-18T01:55:53.891Z,54.90
2022-12-18T01:56:53.858Z,58.70
2022-12-18T01:57:53.831Z,63.20
2022-12-18T01:58:53.801Z,60.70
2022-12-18T01:59:53.776Z,56.30
2022-12-18T02:00:53.751Z,62.00
2022-12-18T02:01:53.927Z,59.20
2022-12-18T02:02:53.878Z,58.40
2022-12-18T02:03:53.647Z,50.00
2022-12-18T02:04:53.610Z,58.50
2022-12-18T02:05:53.585Z,57.20
2022-12-18T02:06:53.555Z,53.50
2022-12-18T02:07:53.526Z,57.20
2022-12-18T02:08:53.487Z,54.50
2022-12-18T02:09:53.462Z,54.90
2022-12-18T02:10:53.425Z,55.80
2022-12-18T02:11:53.407Z,58.20
2022-12-18T02:12:53.490Z,54.30
2022-12-18T02:13:53.341Z,53.20
2022-12-18T02:14:53.302Z,53.10
2022-12-18T02:15:53.274Z,57.20
2022-12-18T02:16:53.337Z,53.50
2022-12-18T02:17:53.216Z,55.70
2022-12-18T02:18:53.180Z,56.50
2022-12-18T02:19:53.155Z,54.80
2022-12-18T02:20:53.118Z,53.80
2022-12-18T02:21:53.088Z,47.70
2022-12-18T02:22:53.055Z,52.10
2022-12-18T02:23:53.025Z,53.20
2022-12-18T02:24:52.995Z,57.00
2022-12-18T02:25:52.967Z,56.10
2022-12-18T02:26:52.936Z,56.40
2022-12-18T02:27:52.912Z,53.10
2022-12-18T02:28:52.983Z,54.80
2022-12-18T02:29:58.012Z,50.00
2022-12-18T02:30:52.900Z,54.70
2022-12-18T02:31:52.781Z,55.60
2022-12-18T02:32:52.752Z,57.80
2022-12-18T02:33:52.722Z,57.20
2022-12-18T02:34:52.691Z,53.40
2022-12-18T02:35:52.672Z,52.00
2022-12-18T02:36:52.629Z,53.20
2022-12-18T02:37:52.603Z,54.40
2022-12-18T02:38:52.576Z,55.60
2022-12-18T02:39:52.536Z,54.00
2022-12-18T02:40:52.504Z,55.20
2022-12-18T02:41:52.476Z,55.10
2022-12-18T02:42:52.443Z,56.20
2022-12-18T02:43:52.417Z,53.00
2022-12-18T02:44:52.496Z,55.60
2022-12-18T02:45:52.449Z,52.40
2022-12-18T02:46:52.317Z,51.10
2022-12-18T02:47:52.289Z,54.50
2022-12-18T02:48:52.258Z,52.40
2022-12-18T02:49:52.233Z,52.10
2022-12-18T02:50:52.191Z,48.90
2022-12-18T02:51:52.168Z,55.50
2022-12-18T02:52:52.132Z,51.50
2022-12-18T02:53:52.104Z,54.80
2022-12-18T02:54:52.076Z,53.50
2022-12-18T02:55:52.040Z,53.60
2022-12-18T02:56:52.011Z,53.20
2022-12-18T02:57:51.985Z,51.40
2022-12-18T02:58:51.950Z,55.60
2022-12-18T02:59:51.918Z,52.20
2022-12-18T03:00:52.027Z,54.40
2022-12-18T03:01:52.093Z,53.50
2022-12-18T03:02:51.962Z,54.10
2022-12-18T03:03:51.798Z,54.30
2022-12-18T03:04:51.762Z,53.30
2022-12-18T03:05:51.735Z,50.90
2022-12-18T03:06:51.702Z,53.10
2022-12-18T03:07:51.677Z,52.10
2022-12-18T03:08:51.644Z,48.50
2022-12-18T03:09:51.610Z,52.80
2022-12-18T03:10:51.576Z,50.60
2022-12-18T03:11:51.548Z,49.80
2022-12-18T03:12:51.519Z,52.90
2022-12-18T03:13:51.487Z,46.70
2022-12-18T03:14:51.459Z,48.50
2022-12-18T03:15:51.428Z,46.30
2022-12-18T03:16:51.536Z,50.80
2022-12-18T03:17:51.368Z,52.60
2022-12-18T03:18:51.330Z,49.80
2022-12-18T03:19:51.303Z,49.30
2022-12-18T03:20:51.272Z,56.20
2022-12-18T03:21:51.250Z,47.00
2022-12-18T03:22:51.209Z,50.10
2022-12-18T03:23:51.181Z,47.00
2022-12-18T03:24:51.145Z,51.00
2022-12-18T03:25:51.120Z,47.30
2022-12-18T03:26:51.086Z,49.60
2022-12-18T03:27:51.054Z,48.80
2022-12-18T03:28:51.027Z,49.30
2022-12-18T03:29:50.996Z,49.50
2022-12-18T03:30:51.029Z,45.80
2022-12-18T03:31:50.934Z,49.50
2022-12-18T03:32:51.023Z,52.90
2022-12-18T03:33:50.878Z,49.60
2022-12-18T03:34:50.841Z,50.10
2022-12-18T03:35:50.813Z,47.70
2022-12-18T03:36:50.778Z,48.00
2022-12-18T03:37:50.749Z,48.10
2022-12-18T03:38:50.714Z,47.50
2022-12-18T03:39:50.687Z,45.00
2022-12-18T03:40:50.654Z,48.10
2022-12-18T03:41:50.626Z,45.20
2022-12-18T03:42:50.588Z,48.40
2022-12-18T03:43:50.563Z,48.10
2022-12-18T03:44:50.536Z,48.00
2022-12-18T03:45:50.565Z,50.40
2022-12-18T03:46:50.478Z,48.30
2022-12-18T03:47:50.437Z,48.50
2022-12-18T03:48:50.534Z,45.90
2022-12-18T03:49:50.378Z,48.10
2022-12-18T03:50:50.344Z,46.60
2022-12-18T03:51:50.318Z,45.90
2022-12-18T03:52:50.280Z,46.10
2022-12-18T03:53:50.259Z,46.60
2022-12-18T03:54:50.221Z,46.80
2022-12-18T03:55:50.199Z,47.00
2022-12-18T03:56:50.158Z,48.10
2022-12-18T03:57:50.135Z,45.80
2022-12-18T03:58:50.110Z,48.30
2022-12-18T03:59:50.077Z,45.30
2022-12-18T04:00:50.037Z,46.10
2022-12-18T04:01:50.136Z,45.00
2022-12-18T04:02:50.020Z,45.10
2022-12-18T04:03:50.051Z,44.90
2022-12-18T04:04:50.032Z,48.40
2022-12-18T04:05:49.887Z,47.00
2022-12-18T04:06:49.853Z,49.00
2022-12-18T04:07:49.825Z,45.10
2022-12-18T04:08:49.791Z,52.10
2022-12-18T04:09:49.769Z,47.70
2022-12-18T04:10:49.728Z,48.20
2022-12-18T04:11:49.704Z,45.20
2022-12-18T04:12:49.667Z,48.00
2022-12-18T04:13:49.640Z,42.40
2022-12-18T04:14:49.603Z,46.70
2022-12-18T04:15:49.663Z,46.10
2022-12-18T04:16:49.541Z,41.10
2022-12-18T04:17:49.515Z,42.70
2022-12-18T04:18:49.481Z,47.30
2022-12-18T04:19:49.452Z,44.10
2022-12-18T04:20:49.547Z,43.70
2022-12-18T04:21:49.392Z,45.60
2022-12-18T04:22:49.359Z,44.80
2022-12-18T04:23:49.337Z,46.20
2022-12-18T04:24:49.300Z,46.00
2022-12-18T04:25:49.275Z,46.60
2022-12-18T04:26:49.237Z,44.90
2022-12-18T04:27:49.212Z,46.80
2022-12-18T04:28:49.175Z,44.50
2022-12-18T04:29:49.144Z,43.10
2022-12-18T04:30:49.145Z,47.70
2022-12-18T04:31:49.082Z,42.90
2022-12-18T04:32:52.153Z,43.90
2022-12-18T04:33:49.028Z,43.50
2022-12-18T04:34:48.992Z,43.90
2022-12-18T04:35:48.962Z,42.30
2022-12-18T04:36:49.052Z,41.90
2022-12-18T04:37:48.903Z,42.60
2022-12-18T04:38:48.863Z,42.40
2022-12-18T04:39:48.838Z,47.00
2022-12-18T04:40:48.806Z,43.80
2022-12-18T04:41:48.779Z,45.10
2022-12-18T04:42:48.808Z,40.30
2022-12-18T04:43:48.712Z,40.00
2022-12-18T04:44:48.681Z,37.50
2022-12-18T04:45:48.658Z,41.10
2022-12-18T04:46:48.693Z,44.30
2022-12-18T04:47:48.590Z,42.80
2022-12-18T04:48:48.556Z,41.80
2022-12-18T04:49:48.535Z,41.70
2022-12-18T04:50:48.498Z,39.70
2022-12-18T04:51:48.472Z,39.10
2022-12-18T04:52:48.554Z,38.20
2022-12-18T04:53:48.413Z,38.10
2022-12-18T04:54:48.373Z,37.80
2022-12-18T04:55:48.346Z,40.80
2022-12-18T04:56:48.308Z,38.00
2022-12-18T04:57:48.288Z,40.90
2022-12-18T04:58:48.246Z,38.40
2022-12-18T04:59:48.222Z,41.50
2022-12-18T05:00:48.185Z,37.70
2022-12-18T05:01:48.422Z,36.90
2022-12-18T05:02:48.314Z,40.30
2022-12-18T05:03:48.259Z,39.80
2022-12-18T05:04:48.064Z,36.80
2022-12-18T05:05:48.032Z,38.00
2022-12-18T05:06:47.998Z,36.70
2022-12-18T05:07:47.978Z,38.10
2022-12-18T05:08:48.065Z,36.20
2022-12-18T05:09:47.913Z,36.50
2022-12-18T05:10:47.881Z,35.50
2022-12-18T05:11:47.852Z,37.00
2022-12-18T05:12:47.816Z,36.30
2022-12-18T05:13:47.790Z,38.30
2022-12-18T05:14:47.759Z,37.80
2022-12-18T05:15:47.776Z,35.90
2022-12-18T05:16:47.694Z,35.20
2022-12-18T05:17:47.669Z,38.00
2022-12-18T05:18:47.637Z,35.00
2022-12-18T05:19:47.611Z,36.20
2022-12-18T05:20:47.569Z,34.50
2022-12-18T05:21:47.546Z,35.10
2022-12-18T05:22:47.512Z,35.70
2022-12-18T05:23:47.480Z,37.60
2022-12-18T05:24:47.570Z,35.50
2022-12-18T05:25:47.425Z,34.70
2022-12-18T05:26:47.385Z,36.40
2022-12-18T05:27:47.364Z,37.10
2022-12-18T05:28:47.338Z,37.60
2022-12-18T05:29:47.302Z,36.50
2022-12-18T05:30:47.262Z,35.80
2022-12-18T05:31:47.295Z,35.30
2022-12-18T05:32:47.204Z,34.40
2022-12-18T05:33:47.173Z,34.30
2022-12-18T05:34:47.138Z,37.00
2022-12-18T05:35:47.111Z,36.90
2022-12-18T05:36:47.081Z,38.00
2022-12-18T05:37:47.049Z,34.70
2022-12-18T05:38:47.018Z,34.40
2022-12-18T05:39:46.988Z,34.70
2022-12-18T05:40:47.066Z,37.50
2022-12-18T05:41:46.928Z,31.90
2022-12-18T05:42:46.891Z,34.20
2022-12-18T05:43:46.865Z,36.20
2022-12-18T05:44:46.829Z,34.20
2022-12-18T05:45:46.804Z,33.60
2022-12-18T05:46:46.875Z,32.30
2022-12-18T05:47:46.742Z,37.20
2022-12-18T05:48:46.706Z,32.70
2022-12-18T05:49:46.685Z,35.90
2022-12-18T05:50:46.655Z,34.90
2022-12-18T05:51:46.617Z,32.80
2022-12-18T05:52:46.588Z,33.10
2022-12-18T05:53:46.566Z,34.40
2022-12-18T05:54:46.526Z,31.60
2022-12-18T05:55:46.496Z,33.50
2022-12-18T05:56:52.222Z,30.80
2022-12-18T05:57:46.548Z,36.30
2022-12-18T05:58:46.398Z,33.90
2022-12-18T05:59:46.370Z,31.40
2022-12-18T06:00:46.347Z,31.40
2022-12-18T06:01:46.440Z,35.70
2022-12-18T06:02:46.361Z,35.30
2022-12-18T06:03:46.887Z,32.80
2022-12-18T06:04:46.214Z,32.30
2022-12-18T06:05:46.205Z,34.30
2022-12-18T06:06:46.156Z,30.90
2022-12-18T06:07:46.131Z,34.90
2022-12-18T06:08:46.841Z,32.10
2022-12-18T06:09:46.071Z,34.60
2022-12-18T06:10:46.031Z,31.40
2022-12-18T06:11:46.006Z,34.90
2022-12-18T06:12:45.969Z,33.30
2022-12-18T06:13:46.058Z,31.60
2022-12-18T06:14:45.908Z,31.40
2022-12-18T06:15:45.911Z,31.30
2022-12-18T06:16:45.849Z,30.30
2022-12-18T06:17:45.821Z,32.30
2022-12-18T06:18:45.789Z,28.80
2022-12-18T06:19:45.758Z,30.70
2022-12-18T06:20:45.733Z,30.30
2022-12-18T06:21:45.696Z,30.70
2022-12-18T06:22:45.665Z,30.00
2022-12-18T06:23:45.633Z,32.00
2022-12-18T06:24:45.604Z,31.00
2022-12-18T06:25:45.572Z,33.80
2022-12-18T06:26:45.546Z,31.50
2022-12-18T06:27:45.509Z,30.70
2022-12-18T06:28:45.479Z,27.90
2022-12-18T06:29:45.563Z,32.40
2022-12-18T06:30:45.418Z,30.70
2022-12-18T06:31:45.470Z,31.60
2022-12-18T06:32:45.359Z,30.80
2022-12-18T06:33:45.325Z,31.10
2022-12-18T06:34:45.291Z,32.40
2022-12-18T06:35:45.269Z,31.10
2022-12-18T06:36:45.236Z,29.70
2022-12-18T06:37:45.203Z,31.20
2022-12-18T06:38:45.173Z,30.10
2022-12-18T06:39:45.142Z,30.60
2022-12-18T06:40:45.108Z,31.90
2022-12-18T06:41:45.082Z,28.40
2022-12-18T06:42:45.047Z,29.50
2022-12-18T06:43:45.018Z,30.60
2022-12-18T06:44:44.988Z,28.40
2022-12-18T06:45:45.121Z,31.10
2022-12-18T06:46:44.922Z,31.70
2022-12-18T06:47:44.899Z,31.60
2022-12-18T06:48:44.863Z,29.80
2022-12-18T06:49:44.839Z,31.70
2022-12-18T06:50:44.803Z,28.10
2022-12-18T06:51:44.772Z,29.60
2022-12-18T06:52:44.737Z,31.60
2022-12-18T06:53:44.710Z,31.40
2022-12-18T06:54:44.677Z,29.50
2022-12-18T06:55:44.646Z,30.50
2022-12-18T06:56:44.616Z,29.90
2022-12-18T06:57:44.591Z,29.80
2022-12-18T06:58:44.557Z,29.50
2022-12-18T06:59:44.525Z,30.60
2022-12-18T07:00:44.570Z,31.10
2022-12-18T07:01:44.877Z,31.70
2022-12-18T07:02:44.532Z,30.30
2022-12-18T07:03:45.157Z,28.80
2022-12-18T07:04:44.369Z,29.80
2022-12-18T07:05:44.344Z,26.80
2022-12-18T07:06:44.314Z,28.70
2022-12-18T07:07:44.278Z,32.00
2022-12-18T07:08:44.249Z,28.20
2022-12-18T07:09:44.223Z,30.90
2022-12-18T07:10:47.433Z,30.40
2022-12-18T07:11:44.158Z,29.00
2022-12-18T07:12:44.128Z,31.70
2022-12-18T07:13:44.192Z,28.60
2022-12-18T07:14:44.072Z,25.60
2022-12-18T07:15:44.034Z,29.80
2022-12-18T07:16:44.093Z,29.20
2022-12-18T07:17:44.085Z,28.20
2022-12-18T07:18:43.944Z,29.10
2022-12-18T07:19:43.913Z,29.20
2022-12-18T07:20:43.879Z,28.70
2022-12-18T07:21:43.852Z,26.60
2022-12-18T07:22:43.825Z,27.10
2022-12-18T07:23:43.792Z,27.10
2022-12-18T07:24:43.759Z,26.20
2022-12-18T07:25:43.732Z,28.80
2022-12-18T07:26:43.690Z,25.90
2022-12-18T07:27:43.667Z,24.30
2022-12-18T07:28:43.639Z,26.10
2022-12-18T07:29:43.603Z,25.50
2022-12-18T07:30:43.573Z,24.00
2022-12-18T07:31:43.636Z,25.30
2022-12-18T07:32:43.514Z,26.20
2022-12-18T07:33:43.682Z,27.80
2022-12-18T07:34:43.453Z,26.00
2022-12-18T07:35:43.416Z,27.00
2022-12-18T07:36:43.390Z,24.60
2022-12-18T07:37:43.360Z,26.60
2022-12-18T07:38:43.329Z,24.40
2022-12-18T07:39:43.304Z,24.10
2022-12-18T07:40:43.263Z,23.20
2022-12-18T07:41:46.737Z,25.50
2022-12-18T07:42:43.205Z,25.60
2022-12-18T07:43:43.598Z,24.20
2022-12-18T07:44:43.145Z,24.10
2022-12-18T07:45:43.185Z,24.40
2022-12-18T07:46:43.084Z,22.80
2022-12-18T07:47:43.056Z,23.50
2022-12-18T07:48:43.022Z,23.50
2022-12-18T07:49:43.110Z,23.00
2022-12-18T07:50:42.963Z,26.40
2022-12-18T07:51:42.928Z,22.20
2022-12-18T07:52:42.905Z,24.00
2022-12-18T07:53:43.304Z,22.50
2022-12-18T07:54:42.842Z,23.50
2022-12-18T07:56:11.209Z,26.50
2022-12-18T07:56:42.775Z,22.80
2022-12-18T07:57:50.371Z,23.40
2022-12-18T07:58:42.717Z,22.90
2022-12-18T07:59:42.688Z,22.70
2022-12-18T08:00:42.655Z,23.90
2022-12-18T08:01:42.757Z,22.90
2022-12-18T08:02:42.704Z,23.00
2022-12-18T08:03:42.960Z,22.30
2022-12-18T08:04:42.533Z,23.80
2022-12-18T08:05:42.629Z,25.40
2022-12-18T08:06:46.250Z,22.90
2022-12-18T08:07:42.442Z,23.40
2022-12-18T08:08:42.411Z,20.40
2022-12-18T08:09:42.386Z,23.70
2022-12-18T08:10:42.348Z,26.70
2022-12-18T08:11:42.323Z,23.30
2022-12-18T08:12:42.296Z,22.40
2022-12-18T08:13:42.523Z,22.20
2022-12-18T08:14:42.229Z,23.40
2022-12-18T08:15:42.203Z,21.70
2022-12-18T08:16:42.268Z,21.50
2022-12-18T08:17:42.139Z,23.30
2022-12-18T08:18:42.110Z,22.90
2022-12-18T08:19:42.078Z,36.90
2022-12-18T08:20:42.056Z,45.60
2022-12-18T08:21:42.144Z,77.70
2022-12-18T08:22:41.992Z,54.70
2022-12-18T08:23:43.401Z,26.30
2022-12-18T08:24:41.929Z,20.60
2022-12-18T08:25:41.908Z,21.20
2022-12-18T08:26:43.658Z,22.50
2022-12-18T08:27:41.847Z,20.80
2022-12-18T08:28:41.812Z,21.70
2022-12-18T08:29:41.784Z,22.00
2022-12-18T08:30:41.811Z,20.80
2022-12-18T08:31:41.825Z,22.60
2022-12-18T08:32:41.699Z,22.80
2022-12-18T08:33:42.122Z,18.90
2022-12-18T08:34:41.637Z,20.60
2022-12-18T08:35:45.851Z,22.30
2022-12-18T08:36:41.583Z,20.90
2022-12-18T08:37:41.667Z,19.90
2022-12-18T08:38:41.524Z,25.30
2022-12-18T08:39:41.500Z,20.00
2022-12-18T08:40:41.465Z,21.10
2022-12-18T08:41:41.446Z,20.20
2022-12-18T08:42:41.431Z,21.20
2022-12-18T08:43:41.759Z,20.30
2022-12-18T08:44:41.354Z,19.80
2022-12-18T08:45:41.397Z,19.60
2022-12-18T08:46:41.375Z,20.30
2022-12-18T08:47:41.272Z,20.60
2022-12-18T08:48:41.240Z,22.00
2022-12-18T08:49:41.213Z,19.60
2022-12-18T08:50:41.184Z,20.80
2022-12-18T08:51:41.165Z,20.10
2022-12-18T08:52:41.137Z,20.20
2022-12-18T08:53:41.537Z,19.70
2022-12-18T08:54:41.073Z,26.20
2022-12-18T08:55:43.557Z,55.10
2022-12-18T08:56:41.015Z,28.30
2022-12-18T08:57:40.993Z,24.70
2022-12-18T08:58:40.974Z,21.20
2022-12-18T08:59:40.947Z,18.30
2022-12-18T09:00:40.914Z,20.00
2022-12-18T09:01:41.038Z,18.00
2022-12-18T09:02:41.002Z,19.40
2022-12-18T09:03:41.368Z,21.00
2022-12-18T09:04:40.837Z,21.30
2022-12-18T09:05:40.780Z,20.00
2022-12-18T09:06:40.800Z,21.30
2022-12-18T09:07:40.729Z,20.80
2022-12-18T09:08:41.163Z,20.00
2022-12-18T09:09:40.793Z,21.30
2022-12-18T09:10:43.423Z,18.90
2022-12-18T09:11:40.620Z,19.30
2022-12-18T09:12:40.593Z,21.00
2022-12-18T09:13:40.957Z,21.30
2022-12-18T09:14:40.538Z,22.20
2022-12-18T09:15:40.517Z,19.60
2022-12-18T09:16:40.567Z,18.50
2022-12-18T09:17:40.464Z,20.00
2022-12-18T09:18:40.904Z,19.90
2022-12-18T09:19:40.414Z,20.90
2022-12-18T09:20:40.385Z,22.70
2022-12-18T09:21:46.148Z,17.30
2022-12-18T09:22:40.332Z,17.00
2022-12-18T09:23:40.312Z,19.50
2022-12-18T09:24:40.292Z,17.60
2022-12-18T09:25:40.378Z,16.80
2022-12-18T09:26:40.237Z,17.20
2022-12-18T09:27:40.220Z,16.50
2022-12-18T09:28:40.610Z,18.40
2022-12-18T09:29:40.178Z,16.60
2022-12-18T09:30:40.233Z,15.80
2022-12-18T09:31:40.132Z,16.40
2022-12-18T09:32:40.107Z,15.30
2022-12-18T09:33:40.109Z,15.50
2022-12-18T09:34:40.071Z,17.10
2022-12-18T09:35:40.061Z,23.00
2022-12-18T09:36:40.038Z,43.00
2022-12-18T09:37:40.052Z,19.20
2022-12-18T09:38:40.386Z,29.20
2022-12-18T09:39:39.961Z,17.70
2022-12-18T09:40:39.935Z,15.90
2022-12-18T09:41:40.037Z,15.90
2022-12-18T09:42:39.895Z,13.80
2022-12-18T09:43:39.880Z,15.30
2022-12-18T09:44:44.974Z,12.20
2022-12-18T09:45:39.828Z,14.00
2022-12-18T09:46:39.908Z,12.60
2022-12-18T09:47:39.787Z,14.00
2022-12-18T09:48:40.096Z,13.90
2022-12-18T09:49:39.745Z,12.30
2022-12-18T09:50:39.722Z,13.20
2022-12-18T09:51:39.719Z,13.10
2022-12-18T09:52:39.689Z,12.90
2022-12-18T09:53:39.658Z,12.00
2022-12-18T09:54:39.638Z,12.50
2022-12-18T09:55:39.618Z,13.00
2022-12-18T09:56:39.594Z,12.40
2022-12-18T09:57:39.690Z,11.90
2022-12-18T09:58:39.984Z,13.00
2022-12-18T09:59:39.538Z,11.20
2022-12-18T10:00:39.511Z,13.50
2022-12-18T10:01:44.404Z,11.70
2022-12-18T10:02:39.717Z,13.10
2022-12-18T10:03:39.458Z,13.40
2022-12-18T10:04:39.482Z,11.90
2022-12-18T10:05:39.414Z,13.20
2022-12-18T10:06:39.392Z,12.60
2022-12-18T10:07:39.377Z,12.00
2022-12-18T10:08:39.684Z,12.60
2022-12-18T10:09:39.338Z,13.10
2022-12-18T10:10:39.311Z,15.30
2022-12-18T10:11:39.298Z,12.80
2022-12-18T10:12:39.269Z,12.30
2022-12-18T10:13:39.376Z,11.80
2022-12-18T10:14:39.230Z,13.10
2022-12-18T10:15:39.246Z,12.60
2022-12-18T10:16:39.192Z,15.30
2022-12-18T10:17:39.175Z,13.20
2022-12-18T10:18:39.547Z,11.60
2022-12-18T10:19:39.138Z,13.80
2022-12-18T10:20:39.117Z,11.70
2022-12-18T10:21:39.095Z,13.00
2022-12-18T10:22:39.069Z,30.00
2022-12-18T10:23:42.501Z,39.20
2022-12-18T10:24:39.021Z,42.60
2022-12-18T10:25:39.008Z,18.50
2022-12-18T10:26:38.979Z,13.50
2022-12-18T10:27:38.959Z,14.40
2022-12-18T10:28:39.340Z,14.70
2022-12-18T10:29:39.031Z,12.90
2022-12-18T10:30:38.893Z,12.90
2022-12-18T10:31:38.911Z,13.70
2022-12-18T10:32:38.846Z,13.60
2022-12-18T10:33:38.831Z,12.70
2022-12-18T10:34:38.801Z,11.10
2022-12-18T10:35:38.779Z,13.60
2022-12-18T10:36:38.757Z,14.40
2022-12-18T10:37:38.735Z,13.10
2022-12-18T10:38:39.141Z,13.80
2022-12-18T10:39:38.689Z,12.30
2022-12-18T10:40:38.663Z,12.80
2022-12-18T10:41:38.641Z,15.00
2022-12-18T10:42:38.615Z,13.80
2022-12-18T10:43:38.600Z,14.60
2022-12-18T10:44:38.567Z,14.00
2022-12-18T10:45:38.666Z,15.90
2022-12-18T10:46:38.579Z,12.40
2022-12-18T10:47:38.497Z,14.70
2022-12-18T10:48:38.895Z,13.90
2022-12-18T10:49:38.453Z,13.10
2022-12-18T10:51:09.643Z,13.90
2022-12-18T10:51:38.430Z,14.90
2022-12-18T10:52:43.448Z,15.80
2022-12-18T10:53:38.349Z,14.90
2022-12-18T10:54:38.328Z,13.70
2022-12-18T10:55:38.304Z,14.40
2022-12-18T10:56:38.283Z,13.50
2022-12-18T10:57:38.258Z,14.60
2022-12-18T10:58:38.226Z,13.50
2022-12-18T10:59:38.207Z,13.30
2022-12-18T11:00:38.182Z,12.60
2022-12-18T11:01:38.410Z,15.30
2022-12-18T11:02:38.265Z,14.00
2022-12-18T11:03:38.161Z,14.90
2022-12-18T11:04:38.077Z,14.30
2022-12-18T11:05:38.067Z,14.40
2022-12-18T11:06:38.031Z,14.30
2022-12-18T11:07:38.012Z,13.10
2022-12-18T11:08:38.335Z,14.80
2022-12-18T11:09:37.960Z,14.90
2022-12-18T11:10:37.931Z,13.60
2022-12-18T11:11:37.913Z,13.70
2022-12-18T11:12:37.894Z,13.70
2022-12-18T11:13:37.863Z,18.40
2022-12-18T11:14:42.177Z,23.00
2022-12-18T11:15:37.865Z,33.90
2022-12-18T11:16:37.783Z,25.00
2022-12-18T11:17:37.883Z,14.90
2022-12-18T11:18:38.223Z,14.50
2022-12-18T11:19:37.711Z,14.50
2022-12-18T11:20:37.681Z,14.20
2022-12-18T11:21:37.659Z,12.70
2022-12-18T11:22:37.632Z,13.20
2022-12-18T11:23:37.614Z,13.20
2022-12-18T11:24:37.582Z,14.20
2022-12-18T11:25:37.550Z,14.40
2022-12-18T11:26:37.541Z,14.50
2022-12-18T11:27:37.507Z,14.20
2022-12-18T11:28:37.759Z,15.10
2022-12-18T11:29:40.714Z,13.40
2022-12-18T11:30:37.444Z,15.10
2022-12-18T11:31:37.453Z,14.50
2022-12-18T11:32:37.388Z,16.30
2022-12-18T11:33:37.477Z,14.60
2022-12-18T11:34:37.331Z,13.00
2022-12-18T11:35:37.311Z,13.40
2022-12-18T11:36:37.284Z,15.20
2022-12-18T11:37:37.263Z,13.10
2022-12-18T11:38:37.376Z,14.30
2022-12-18T11:39:37.204Z,13.00
2022-12-18T11:40:41.065Z,12.90
2022-12-18T11:41:37.158Z,14.60
2022-12-18T11:42:37.128Z,14.40
2022-12-18T11:43:37.106Z,15.80
2022-12-18T11:44:37.085Z,15.40
2022-12-18T11:45:37.052Z,14.70
2022-12-18T11:46:37.080Z,13.90
2022-12-18T11:47:37.001Z,14.20
2022-12-18T11:48:37.094Z,14.90
2022-12-18T11:49:37.068Z,16.50
2022-12-18T11:50:36.948Z,14.00
2022-12-18T11:51:36.900Z,15.70
2022-12-18T11:52:36.874Z,15.90
2022-12-18T11:53:36.853Z,15.20
2022-12-18T11:54:36.828Z,14.50
2022-12-18T11:55:36.805Z,17.80
2022-12-18T11:56:36.770Z,15.20
2022-12-18T11:57:36.749Z,13.60
2022-12-18T11:58:36.718Z,14.50
2022-12-18T11:59:36.696Z,13.80
2022-12-18T12:00:36.674Z,15.40
2022-12-18T12:01:43.598Z,15.80
2022-12-18T12:02:36.831Z,17.80
2022-12-18T12:03:36.779Z,14.20
2022-12-18T12:04:36.649Z,16.00
2022-12-18T12:05:36.651Z,14.30
2022-12-18T12:06:36.533Z,15.40
2022-12-18T12:07:36.490Z,16.30
2022-12-18T12:08:36.465Z,14.20
2022-12-18T12:09:36.434Z,15.80
2022-12-18T12:10:36.403Z,14.20
2022-12-18T12:11:36.382Z,16.80
2022-12-18T12:12:36.352Z,15.50
2022-12-18T12:13:36.329Z,15.80
2022-12-18T12:14:36.316Z,18.00
2022-12-18T12:15:36.276Z,16.80
2022-12-18T12:16:36.309Z,15.90
2022-12-18T12:17:36.224Z,13.80
2022-12-18T12:18:36.192Z,16.70
2022-12-18T12:19:36.176Z,15.20
2022-12-18T12:20:36.342Z,15.90
2022-12-18T12:21:36.238Z,15.30
2022-12-18T12:22:36.093Z,15.70
2022-12-18T12:23:36.071Z,17.00
2022-12-18T12:24:36.039Z,16.20
2022-12-18T12:25:36.026Z,15.80
2022-12-18T12:26:35.991Z,15.80
2022-12-18T12:27:35.962Z,14.80
2022-12-18T12:28:35.935Z,15.50
2022-12-18T12:29:35.910Z,16.20
2022-12-18T12:30:35.880Z,64.90
2022-12-18T12:31:35.946Z,23.90
2022-12-18T12:32:35.830Z,21.50
2022-12-18T12:33:35.807Z,23.50
2022-12-18T12:34:35.776Z,20.40
2022-12-18T12:35:35.757Z,17.60
2022-12-18T12:36:35.725Z,16.00
2022-12-18T12:37:35.820Z,17.80
2022-12-18T12:38:35.675Z,15.10
2022-12-18T12:39:35.647Z,17.50
2022-12-18T12:40:56.652Z,14.70
2022-12-18T12:41:35.597Z,15.20
2022-12-18T12:42:35.571Z,14.60
2022-12-18T12:43:35.547Z,17.30
2022-12-18T12:44:35.516Z,15.70
2022-12-18T12:45:35.520Z,15.80
2022-12-18T12:46:35.465Z,16.40
2022-12-18T12:47:35.450Z,15.20
2022-12-18T12:48:35.411Z,17.60
2022-12-18T12:49:40.550Z,14.70
2022-12-18T12:50:35.363Z,14.90
2022-12-18T12:51:35.335Z,15.20
2022-12-18T12:52:35.305Z,15.60